Time;durP1;ratioP1;P1;durP2;ratioP2;P2;SDS_P1;SDS_P2;PMS_P1;PMS_P2;Temp;Humidity;BMP_temperature;BMP_pressure;BME280_temperature;BME280_humidity;BME280_pressure;Samples;Min_cycle;Max_cycle;Signal;HPM_P1;HPM_P2
2022/12/08 00:00:53;;;;;;;379.27;127.73;;;;;;;;;;5015681;28;20207;-77
2022/12/08 00:03:19;;;;;;;467.60;164.50;;;;;;;;;;5021003;28;20280;-79
2022/12/08 00:11:16;;;;;;;513.13;168.80;;;;;;;;;;5003105;28;20739;-79
2022/12/08 00:13:42;;;;;;;499.70;172.63;;;;;;;;;;4984378;28;20188;-79
2022/12/08 00:16:08;;;;;;;384.67;128.10;;;;;;;;;;4985519;28;20215;-76
2022/12/08 00:18:34;;;;;;;472.67;163.27;;;;;;;;;;5010530;28;20865;-77
2022/12/08 00:21:00;;;;;;;393.97;138.13;;;;;;;;;;5012659;28;20249;-77
2022/12/08 00:23:27;;;;;;;559.70;195.47;;;;;;;;;;4998766;28;20204;-77
2022/12/08 00:25:53;;;;;;;470.03;160.47;;;;;;;;;;5030479;28;20208;-78
2022/12/08 00:28:19;;;;;;;529.53;181.33;;;;;;;;;;5029081;28;20265;-78
2022/12/08 00:30:45;;;;;;;464.47;172.03;;;;;;;;;;4995188;28;20272;-77
2022/12/08 00:33:11;;;;;;;335.93;123.70;;;;;;;;;;5021766;28;20693;-77
2022/12/08 00:35:37;;;;;;;444.00;148.30;;;;;;;;;;5006638;28;20212;-77
2022/12/08 00:38:03;;;;;;;422.40;147.47;;;;;;;;;;5007930;28;20207;-77
2022/12/08 00:40:29;;;;;;;538.50;189.57;;;;;;;;;;5015246;28;20183;-77
2022/12/08 00:42:55;;;;;;;521.43;174.67;;;;;;;;;;4996309;28;20228;-78
2022/12/08 00:45:21;;;;;;;562.93;189.17;;;;;;;;;;4993905;28;20353;-77
2022/12/08 00:47:47;;;;;;;504.43;175.40;;;;;;;;;;5010615;28;20245;-77
2022/12/08 00:50:13;;;;;;;461.73;168.67;;;;;;;;;;4987912;28;20923;-77
2022/12/08 00:52:39;;;;;;;421.47;147.27;;;;;;;;;;5015756;28;20188;-76
2022/12/08 00:55:05;;;;;;;546.17;180.73;;;;;;;;;;5011148;28;20356;-79
2022/12/08 00:57:31;;;;;;;406.93;141.03;;;;;;;;;;5025276;28;20259;-76
2022/12/08 00:59:57;;;;;;;589.10;199.20;;;;;;;;;;5025008;28;20693;-78
2022/12/08 01:02:24;;;;;;;459.73;150.97;;;;;;;;;;5009766;28;20327;-76
2022/12/08 01:04:50;;;;;;;597.30;198.40;;;;;;;;;;5000028;28;20306;-78
2022/12/08 01:07:16;;;;;;;468.10;161.70;;;;;;;;;;5021554;28;20281;-78
2022/12/08 01:09:42;;;;;;;494.00;172.33;;;;;;;;;;5001126;28;20216;-77
2022/12/08 01:12:08;;;;;;;505.40;179.63;;;;;;;;;;4993419;28;20205;-76
2022/12/08 01:14:34;;;;;;;497.73;173.67;;;;;;;;;;5015292;28;20234;-76
2022/12/08 01:17:00;;;;;;;467.00;158.10;;;;;;;;;;5005237;28;20191;-77
2022/12/08 01:19:26;;;;;;;426.03;167.90;;;;;;;;;;5008092;28;20191;-77
2022/12/08 01:21:52;;;;;;;511.33;176.47;;;;;;;;;;5009694;28;20212;-71
2022/12/08 01:24:19;;;;;;;394.33;140.73;;;;;;;;;;5019515;28;20368;-71
2022/12/08 01:26:45;;;;;;;526.57;181.60;;;;;;;;;;5019561;28;20227;-73
2022/12/08 01:29:11;;;;;;;408.83;149.90;;;;;;;;;;4996364;28;20441;-73
2022/12/08 01:31:38;;;;;;;407.53;153.17;;;;;;;;;;5018744;28;20190;-73
2022/12/08 01:34:04;;;;;;;366.50;134.50;;;;;;;;;;5004892;28;20224;-73
2022/12/08 01:36:30;;;;;;;514.53;172.67;;;;;;;;;;5017981;28;20274;-73
2022/12/08 01:38:57;;;;;;;507.07;173.47;;;;;;;;;;4993714;28;20233;-71
2022/12/08 01:41:25;;;;;;;469.50;154.60;;;;;;;;;;5012209;28;20221;-72
2022/12/08 01:44:23;;;;;;;515.60;184.87;;;;;;;;;;4997488;28;20262;-71
2022/12/08 01:46:49;;;;;;;497.30;177.27;;;;;;;;;;5011483;28;21004;-71
2022/12/08 01:49:15;;;;;;;546.53;183.20;;;;;;;;;;5007105;28;20935;-72
2022/12/08 01:51:44;;;;;;;490.07;174.57;;;;;;;;;;5000135;28;20227;-71
2022/12/08 01:54:11;;;;;;;309.30;125.13;;;;;;;;;;5011752;28;20216;-72
2022/12/08 01:56:42;;;;;;;399.20;141.10;;;;;;;;;;5016375;28;20216;-72
2022/12/08 01:59:09;;;;;;;581.10;219.33;;;;;;;;;;5013656;28;20819;-72
2022/12/08 02:01:35;;;;;;;370.73;124.63;;;;;;;;;;5019467;28;20618;-72
2022/12/08 02:04:01;;;;;;;514.13;162.03;;;;;;;;;;5019509;28;20223;-72
2022/12/08 02:06:29;;;;;;;443.13;145.10;;;;;;;;;;5016042;28;20938;-72
2022/12/08 02:08:56;;;;;;;392.53;132.60;;;;;;;;;;4998610;28;20247;-72
2022/12/08 02:11:22;;;;;;;475.67;160.00;;;;;;;;;;5021618;28;20262;-72
2022/12/08 02:13:50;;;;;;;513.57;163.97;;;;;;;;;;5012534;28;20745;-72
2022/12/08 02:16:31;;;;;;;511.40;167.00;;;;;;;;;;5020390;28;20208;-72
2022/12/08 02:19:00;;;;;;;341.53;130.70;;;;;;;;;;5011236;28;21854;-72
2022/12/08 02:21:33;;;;;;;557.27;196.27;;;;;;;;;;5013097;28;21028;-72
2022/12/08 02:24:07;;;;;;;367.33;133.00;;;;;;;;;;5019679;28;20214;-71
2022/12/08 02:26:33;;;;;;;501.40;183.63;;;;;;;;;;5000135;28;20300;-72
2022/12/08 02:29:11;;;;;;;465.33;174.00;;;;;;;;;;5010813;28;20200;-72
2022/12/08 02:31:49;;;;;;;407.90;144.67;;;;;;;;;;4995284;28;20186;-72
2022/12/08 02:34:22;;;;;;;333.23;120.23;;;;;;;;;;5001352;28;20211;-71
2022/12/08 02:36:54;;;;;;;486.57;148.00;;;;;;;;;;4995025;28;20760;-73
2022/12/08 02:39:22;;;;;;;464.93;161.30;;;;;;;;;;5011370;28;20246;-72
2022/12/08 02:41:53;;;;;;;503.53;179.50;;;;;;;;;;5007992;28;21380;-72
2022/12/08 02:44:21;;;;;;;382.07;139.17;;;;;;;;;;5016116;28;20215;-71
2022/12/08 02:46:56;;;;;;;390.50;139.07;;;;;;;;;;5014368;28;20189;-72
2022/12/08 02:49:27;;;;;;;427.40;155.00;;;;;;;;;;4987538;28;20226;-72
2022/12/08 02:52:03;;;;;;;476.07;170.27;;;;;;;;;;5020010;28;20222;-72
2022/12/08 02:54:29;;;;;;;363.53;135.00;;;;;;;;;;5018282;28;20798;-72
2022/12/08 02:57:12;;;;;;;513.33;168.13;;;;;;;;;;5016880;28;20216;-71
2022/12/08 02:59:48;;;;;;;330.10;123.97;;;;;;;;;;5009514;28;20230;-71
2022/12/08 03:02:26;;;;;;;557.37;190.20;;;;;;;;;;4991249;28;20709;-71
2022/12/08 03:04:55;;;;;;;418.37;152.17;;;;;;;;;;4996060;28;20259;-72
2022/12/08 03:07:23;;;;;;;434.83;159.43;;;;;;;;;;5017828;28;20223;-72
2022/12/08 03:10:03;;;;;;;370.67;138.30;;;;;;;;;;5009998;28;20234;-72
2022/12/08 03:12:45;;;;;;;557.37;183.57;;;;;;;;;;5012333;28;20208;-73
2022/12/08 03:15:13;;;;;;;491.57;170.07;;;;;;;;;;4997741;28;20222;-72
2022/12/08 03:17:42;;;;;;;474.03;166.60;;;;;;;;;;5015606;28;20318;-72
2022/12/08 03:20:10;;;;;;;340.50;129.00;;;;;;;;;;5014163;28;20636;-72
2022/12/08 03:22:38;;;;;;;505.27;175.63;;;;;;;;;;5009609;28;20180;-72
2022/12/08 03:25:04;;;;;;;433.27;153.33;;;;;;;;;;5003229;28;20524;-72
2022/12/08 03:27:30;;;;;;;381.53;141.63;;;;;;;;;;5013914;28;20286;-71
2022/12/08 03:29:58;;;;;;;522.20;194.07;;;;;;;;;;5013811;28;20215;-71
2022/12/08 03:32:33;;;;;;;458.87;169.47;;;;;;;;;;4995403;28;20208;-72
2022/12/08 03:35:00;;;;;;;518.43;185.57;;;;;;;;;;5013271;28;20281;-72
2022/12/08 03:37:27;;;;;;;501.67;181.63;;;;;;;;;;5012242;28;20644;-72
2022/12/08 03:39:53;;;;;;;434.23;165.27;;;;;;;;;;5007557;28;20324;-71
2022/12/08 03:42:19;;;;;;;429.97;144.00;;;;;;;;;;5008550;28;20216;-72
2022/12/08 03:44:45;;;;;;;461.37;160.30;;;;;;;;;;5020481;28;20227;-72
2022/12/08 03:47:11;;;;;;;405.27;150.20;;;;;;;;;;5012783;28;20293;-72
2022/12/08 03:49:37;;;;;;;469.47;157.63;;;;;;;;;;4994138;28;20172;-72
2022/12/08 03:52:03;;;;;;;432.70;148.43;;;;;;;;;;5016916;28;20264;-71
2022/12/08 03:54:29;;;;;;;594.87;193.13;;;;;;;;;;5015391;28;20216;-72
2022/12/08 03:56:55;;;;;;;506.27;174.47;;;;;;;;;;5020230;28;20230;-71
2022/12/08 03:59:21;;;;;;;417.60;148.83;;;;;;;;;;5004974;28;20215;-71
2022/12/08 04:01:47;;;;;;;407.67;144.83;;;;;;;;;;5012839;28;20192;-72
2022/12/08 04:04:13;;;;;;;411.73;138.43;;;;;;;;;;5019563;28;20215;-72
2022/12/08 04:06:39;;;;;;;521.70;174.73;;;;;;;;;;5012393;28;20239;-72
2022/12/08 04:09:05;;;;;;;469.83;171.87;;;;;;;;;;5010797;28;20315;-71
2022/12/08 04:11:31;;;;;;;478.17;164.37;;;;;;;;;;5005443;28;20216;-73
2022/12/08 04:13:57;;;;;;;631.13;213.67;;;;;;;;;;5010876;28;20325;-72
2022/12/08 04:16:24;;;;;;;474.43;152.50;;;;;;;;;;4993436;28;20235;-72
2022/12/08 04:18:51;;;;;;;501.10;174.93;;;;;;;;;;5015448;28;20304;-72
2022/12/08 04:21:17;;;;;;;446.20;147.60;;;;;;;;;;4994751;28;20295;-72
2022/12/08 04:23:43;;;;;;;407.27;136.13;;;;;;;;;;5018424;28;20726;-72
2022/12/08 04:26:09;;;;;;;481.57;178.87;;;;;;;;;;4991903;28;20209;-73
2022/12/08 04:28:35;;;;;;;363.07;126.17;;;;;;;;;;4996798;28;20298;-72
2022/12/08 04:31:01;;;;;;;436.27;155.37;;;;;;;;;;4997875;28;20343;-72
2022/12/08 04:33:27;;;;;;;391.50;146.97;;;;;;;;;;4999007;28;20220;-72
2022/12/08 04:35:53;;;;;;;476.93;162.57;;;;;;;;;;5017590;28;20204;-72
2022/12/08 04:38:19;;;;;;;580.40;200.93;;;;;;;;;;5001625;28;20274;-72
2022/12/08 04:40:45;;;;;;;511.63;175.43;;;;;;;;;;5014762;28;20271;-72
2022/12/08 04:43:11;;;;;;;411.80;139.30;;;;;;;;;;5011603;28;20212;-72
2022/12/08 04:45:40;;;;;;;414.73;133.67;;;;;;;;;;5018763;28;20227;-72
2022/12/08 04:48:07;;;;;;;445.33;157.03;;;;;;;;;;4998935;28;20219;-71
2022/12/08 04:50:33;;;;;;;459.57;159.53;;;;;;;;;;5015578;28;20291;-71
2022/12/08 04:52:59;;;;;;;481.37;162.40;;;;;;;;;;5018628;28;20224;-72
2022/12/08 04:55:24;;;;;;;424.20;148.50;;;;;;;;;;5024583;28;20192;-71
2022/12/08 04:57:50;;;;;;;396.97;146.17;;;;;;;;;;5009682;28;20465;-72
2022/12/08 05:00:17;;;;;;;395.77;137.10;;;;;;;;;;5020510;28;20229;-71
2022/12/08 05:02:43;;;;;;;493.10;160.20;;;;;;;;;;5017445;28;20668;-72
2022/12/08 05:05:09;;;;;;;429.43;153.93;;;;;;;;;;5000628;28;20218;-72
2022/12/08 05:07:35;;;;;;;351.60;120.07;;;;;;;;;;5027076;28;20659;-72
2022/12/08 05:10:01;;;;;;;477.37;162.10;;;;;;;;;;5011811;28;20344;-73
2022/12/08 05:12:27;;;;;;;431.30;139.83;;;;;;;;;;5003614;28;20238;-73
2022/12/08 05:14:53;;;;;;;428.20;151.13;;;;;;;;;;5015754;28;20272;-73
2022/12/08 05:17:19;;;;;;;384.13;127.53;;;;;;;;;;5022853;28;20699;-72
2022/12/08 05:19:45;;;;;;;306.53;109.57;;;;;;;;;;5028922;28;20262;-72
2022/12/08 05:22:11;;;;;;;465.53;157.07;;;;;;;;;;5029546;28;20241;-73
2022/12/08 05:24:37;;;;;;;359.53;124.67;;;;;;;;;;5027143;28;20258;-72
2022/12/08 05:27:03;;;;;;;510.23;165.83;;;;;;;;;;5014494;28;20231;-73
2022/12/08 05:29:29;;;;;;;403.93;142.17;;;;;;;;;;5014668;28;20315;-73
2022/12/08 05:31:55;;;;;;;538.17;193.37;;;;;;;;;;5016313;28;20198;-72
2022/12/08 05:34:21;;;;;;;426.77;146.87;;;;;;;;;;5017061;28;20183;-72
2022/12/08 05:36:47;;;;;;;401.20;143.00;;;;;;;;;;5033998;28;21041;-73
2022/12/08 05:39:13;;;;;;;355.60;126.20;;;;;;;;;;5031122;28;20628;-72
2022/12/08 05:41:39;;;;;;;417.00;138.83;;;;;;;;;;5033441;28;20826;-73
2022/12/08 05:44:05;;;;;;;537.30;179.63;;;;;;;;;;5023183;28;20234;-72
2022/12/08 05:46:31;;;;;;;354.10;130.33;;;;;;;;;;5022353;28;20747;-73
2022/12/08 05:48:58;;;;;;;545.60;169.93;;;;;;;;;;5024414;28;20219;-72
2022/12/08 05:51:24;;;;;;;428.03;140.70;;;;;;;;;;5023242;28;20688;-72
2022/12/08 05:53:51;;;;;;;380.13;131.53;;;;;;;;;;5025154;28;20210;-72
2022/12/08 05:56:18;;;;;;;332.37;119.27;;;;;;;;;;5032178;28;20749;-72
2022/12/08 05:58:44;;;;;;;449.40;151.23;;;;;;;;;;5034321;28;20194;-72
2022/12/08 06:01:20;;;;;;;479.27;154.87;;;;;;;;;;5030488;28;20218;-71
2022/12/08 06:03:46;;;;;;;472.60;158.67;;;;;;;;;;5023689;28;20292;-71
2022/12/08 06:06:12;;;;;;;467.43;154.40;;;;;;;;;;5022029;28;20333;-73
2022/12/08 06:08:38;;;;;;;356.27;120.40;;;;;;;;;;5024310;28;20216;-73
2022/12/08 06:11:03;;;;;;;410.03;134.27;;;;;;;;;;5023658;28;20199;-71
2022/12/08 06:13:29;;;;;;;383.00;132.50;;;;;;;;;;5017476;28;20493;-70
2022/12/08 06:15:55;;;;;;;376.00;133.43;;;;;;;;;;5006993;28;20216;-70
2022/12/08 06:18:21;;;;;;;560.63;196.60;;;;;;;;;;5037905;28;20211;-71
2022/12/08 06:20:47;;;;;;;395.23;135.13;;;;;;;;;;5034561;28;20211;-70
2022/12/08 06:23:13;;;;;;;405.27;132.57;;;;;;;;;;5022081;28;20301;-72
2022/12/08 06:25:39;;;;;;;326.33;122.07;;;;;;;;;;5039907;28;20207;-72
2022/12/08 06:28:06;;;;;;;507.43;183.80;;;;;;;;;;5037018;28;20219;-71
2022/12/08 06:30:32;;;;;;;510.17;179.57;;;;;;;;;;5034974;28;20917;-71
2022/12/08 06:32:58;;;;;;;482.23;164.03;;;;;;;;;;5038162;28;20263;-72
2022/12/08 06:35:24;;;;;;;419.40;142.87;;;;;;;;;;5018783;28;20215;-69
2022/12/08 06:37:50;;;;;;;377.77;137.93;;;;;;;;;;4999974;28;20206;-69
2022/12/08 06:40:16;;;;;;;520.40;179.60;;;;;;;;;;4991744;28;20212;-70
2022/12/08 06:42:43;;;;;;;385.60;141.10;;;;;;;;;;4992999;28;20228;-67
2022/12/08 06:45:10;;;;;;;606.07;211.00;;;;;;;;;;5006400;28;20225;-71
2022/12/08 06:47:36;;;;;;;448.13;145.17;;;;;;;;;;5000607;28;20304;-64
2022/12/08 06:50:02;;;;;;;410.70;138.80;;;;;;;;;;4990038;28;20286;-65
2022/12/08 06:52:28;;;;;;;462.07;162.47;;;;;;;;;;4995968;28;20184;-65
2022/12/08 06:54:53;;;;;;;444.77;161.93;;;;;;;;;;5015593;28;20230;-69
2022/12/08 06:57:20;;;;;;;502.27;187.13;;;;;;;;;;5024008;28;20676;-69
2022/12/08 06:59:46;;;;;;;427.70;153.00;;;;;;;;;;5019917;28;20227;-69
2022/12/08 07:02:12;;;;;;;470.80;154.80;;;;;;;;;;5021108;28;20422;-68
2022/12/08 07:04:37;;;;;;;342.70;128.17;;;;;;;;;;4995479;28;20338;-67
2022/12/08 07:07:03;;;;;;;342.43;117.90;;;;;;;;;;5019542;28;20276;-67
2022/12/08 07:09:29;;;;;;;509.00;168.80;;;;;;;;;;5014297;28;20215;-67
2022/12/08 07:11:55;;;;;;;401.50;137.50;;;;;;;;;;5007925;28;20845;-66
2022/12/08 07:14:23;;;;;;;462.37;160.53;;;;;;;;;;5026694;28;20223;-68
2022/12/08 07:16:50;;;;;;;539.73;182.87;;;;;;;;;;5002050;28;20292;-66
2022/12/08 07:19:16;;;;;;;614.50;210.07;;;;;;;;;;4992267;28;20306;-67
2022/12/08 07:21:42;;;;;;;514.77;184.77;;;;;;;;;;4992427;28;20220;-67
2022/12/08 07:24:08;;;;;;;500.47;171.33;;;;;;;;;;5001255;28;21059;-68
2022/12/08 07:26:34;;;;;;;496.20;170.33;;;;;;;;;;5026372;28;20228;-68
2022/12/08 07:29:00;;;;;;;429.00;148.57;;;;;;;;;;5022401;28;20684;-68
2022/12/08 07:31:27;;;;;;;502.83;167.23;;;;;;;;;;5005062;28;20787;-66
2022/12/08 07:33:53;;;;;;;495.80;169.90;;;;;;;;;;5010763;28;20741;-67
2022/12/08 07:36:20;;;;;;;504.63;179.90;;;;;;;;;;5008208;28;20659;-67
2022/12/08 07:38:45;;;;;;;456.17;163.63;;;;;;;;;;5019498;28;20670;-67
2022/12/08 07:41:13;;;;;;;544.03;190.57;;;;;;;;;;5010074;28;20325;-65
2022/12/08 07:43:39;;;;;;;457.63;156.17;;;;;;;;;;5018130;28;20845;-68
2022/12/08 07:46:05;;;;;;;371.47;126.23;;;;;;;;;;4991899;28;20220;-66
2022/12/08 07:48:30;;;;;;;524.90;175.90;;;;;;;;;;4981787;28;20291;-68
2022/12/08 07:51:00;;;;;;;582.37;194.83;;;;;;;;;;4986631;28;20262;-67
2022/12/08 07:53:26;;;;;;;473.27;162.77;;;;;;;;;;4988876;28;23124;-67
2022/12/08 07:55:52;;;;;;;456.17;146.27;;;;;;;;;;5019592;28;20192;-67
2022/12/08 07:58:18;;;;;;;499.47;198.43;;;;;;;;;;5032914;28;20215;-69
2022/12/08 08:00:44;;;;;;;515.23;186.97;;;;;;;;;;5018408;28;20272;-68
2022/12/08 08:03:11;;;;;;;462.37;161.13;;;;;;;;;;5006481;28;20216;-68
2022/12/08 08:05:37;;;;;;;410.23;153.70;;;;;;;;;;5008812;28;20227;-68
2022/12/08 08:08:03;;;;;;;379.13;151.07;;;;;;;;;;5011103;28;20209;-69
2022/12/08 08:10:29;;;;;;;487.37;182.10;;;;;;;;;;5011910;28;20606;-68
2022/12/08 08:12:58;;;;;;;533.13;196.13;;;;;;;;;;4993162;28;20220;-69
2022/12/08 08:15:24;;;;;;;505.57;196.67;;;;;;;;;;5005616;28;20208;-69
2022/12/08 08:17:50;;;;;;;441.20;168.03;;;;;;;;;;5006261;28;20215;-69
2022/12/08 08:20:16;;;;;;;376.60;151.60;;;;;;;;;;5005988;28;20306;-69
2022/12/08 08:22:42;;;;;;;469.73;165.70;;;;;;;;;;5014144;28;22790;-69
2022/12/08 08:25:08;;;;;;;462.80;161.53;;;;;;;;;;5018941;28;20219;-68
2022/12/08 08:27:34;;;;;;;434.50;157.67;;;;;;;;;;5013566;28;20219;-69
2022/12/08 08:30:00;;;;;;;509.17;170.23;;;;;;;;;;4988768;28;20226;-69
2022/12/08 08:32:26;;;;;;;466.40;157.87;;;;;;;;;;5008446;28;20211;-70
2022/12/08 08:34:52;;;;;;;557.17;179.13;;;;;;;;;;5010675;28;20208;-68
2022/12/08 08:37:18;;;;;;;443.83;156.93;;;;;;;;;;4995262;28;20749;-69
2022/12/08 08:39:44;;;;;;;467.87;167.73;;;;;;;;;;5014751;28;20215;-69
2022/12/08 08:42:10;;;;;;;452.73;169.00;;;;;;;;;;5011306;28;20223;-69
2022/12/08 08:44:37;;;;;;;531.77;180.67;;;;;;;;;;5014357;28;20246;-69
2022/12/08 08:47:03;;;;;;;461.43;173.97;;;;;;;;;;4996115;28;20184;-68
2022/12/08 08:49:29;;;;;;;524.87;174.27;;;;;;;;;;5000875;28;20187;-69
2022/12/08 08:51:55;;;;;;;516.40;178.97;;;;;;;;;;4999457;28;20271;-71
2022/12/08 08:54:21;;;;;;;451.33;165.17;;;;;;;;;;5005636;28;20864;-70
2022/12/08 08:56:47;;;;;;;435.17;147.27;;;;;;;;;;4999764;28;20226;-72
2022/12/08 08:59:13;;;;;;;383.83;136.10;;;;;;;;;;5016653;28;21035;-70
2022/12/08 09:01:39;;;;;;;376.63;134.37;;;;;;;;;;5033839;28;20292;-71
2022/12/08 09:04:05;;;;;;;365.53;132.00;;;;;;;;;;5012934;28;20211;-69
2022/12/08 09:06:31;;;;;;;539.60;185.43;;;;;;;;;;5009405;28;20224;-73
2022/12/08 09:08:57;;;;;;;560.60;194.10;;;;;;;;;;4992843;28;20588;-71
2022/12/08 09:11:23;;;;;;;449.63;161.73;;;;;;;;;;4991625;28;20224;-72
2022/12/08 09:13:50;;;;;;;554.80;182.10;;;;;;;;;;5013324;28;20619;-71
2022/12/08 09:16:16;;;;;;;350.20;136.83;;;;;;;;;;5022800;28;20581;-69
2022/12/08 09:18:42;;;;;;;475.73;156.53;;;;;;;;;;5012851;28;20220;-70
2022/12/08 09:21:19;;;;;;;363.73;137.27;;;;;;;;;;5032435;28;20203;-69
2022/12/08 09:23:45;;;;;;;342.37;129.33;;;;;;;;;;5043682;28;20885;-69
2022/12/08 09:26:11;;;;;;;509.30;171.93;;;;;;;;;;5042775;28;20208;-69
2022/12/08 09:28:37;;;;;;;360.40;136.17;;;;;;;;;;5033703;28;20278;-69
2022/12/08 09:31:03;;;;;;;599.03;195.50;;;;;;;;;;5030955;28;20226;-71
2022/12/08 09:33:29;;;;;;;431.37;149.03;;;;;;;;;;5011933;28;20726;-70
2022/12/08 09:35:55;;;;;;;544.57;172.33;;;;;;;;;;5019744;28;20302;-70
2022/12/08 09:38:21;;;;;;;530.30;182.17;;;;;;;;;;5004807;28;20592;-70
2022/12/08 09:40:49;;;;;;;603.80;207.80;;;;;;;;;;5008956;28;20252;-70
2022/12/08 09:43:23;;;;;;;535.70;186.63;;;;;;;;;;5008515;28;20264;-71
2022/12/08 09:45:50;;;;;;;416.17;149.37;;;;;;;;;;4991802;28;20291;-70
2022/12/08 09:48:23;;;;;;;491.47;173.70;;;;;;;;;;5010451;28;20620;-68
2022/12/08 09:50:56;;;;;;;554.10;184.37;;;;;;;;;;4988033;28;22094;-72
2022/12/08 09:53:26;;;;;;;432.40;150.83;;;;;;;;;;5015009;28;20302;-71
2022/12/08 09:55:55;;;;;;;415.47;145.70;;;;;;;;;;5008168;28;20249;-72
2022/12/08 09:58:27;;;;;;;429.43;155.03;;;;;;;;;;5009584;28;20637;-72
2022/12/08 10:00:53;;;;;;;448.13;158.77;;;;;;;;;;5006993;28;20216;-72
2022/12/08 10:03:20;;;;;;;525.97;203.77;;;;;;;;;;5007531;28;20216;-72
2022/12/08 10:05:50;;;;;;;423.60;166.10;;;;;;;;;;5003989;28;20692;-72
2022/12/08 10:08:18;;;;;;;558.17;209.03;;;;;;;;;;5016263;28;20546;-71
2022/12/08 10:10:47;;;;;;;429.70;167.83;;;;;;;;;;5016462;28;20189;-71
2022/12/08 10:13:32;;;;;;;625.30;234.23;;;;;;;;;;5011046;28;20277;-71
2022/12/08 10:16:06;;;;;;;475.73;179.10;;;;;;;;;;5019654;28;20321;-71
2022/12/08 10:18:32;;;;;;;533.07;206.23;;;;;;;;;;4999735;28;20217;-71
2022/12/08 10:21:12;;;;;;;390.30;160.60;;;;;;;;;;5002480;28;20227;-71
2022/12/08 10:23:39;;;;;;;523.47;198.97;;;;;;;;;;5016436;28;20330;-71
2022/12/08 10:26:06;;;;;;;414.80;171.27;;;;;;;;;;5006732;28;20719;-71
2022/12/08 10:28:33;;;;;;;461.73;179.87;;;;;;;;;;5002013;28;20668;-71
2022/12/08 10:30:59;;;;;;;335.60;136.13;;;;;;;;;;5023194;28;20269;-72
2022/12/08 10:33:25;;;;;;;436.47;169.27;;;;;;;;;;5020961;28;20220;-71
2022/12/08 10:35:57;;;;;;;457.90;174.87;;;;;;;;;;5014424;28;20303;-71
2022/12/08 10:38:23;;;;;;;415.57;165.00;;;;;;;;;;4994982;28;20404;-71
2022/12/08 10:40:54;;;;;;;520.43;214.57;;;;;;;;;;5015123;28;20301;-71
2022/12/08 10:43:26;;;;;;;431.20;183.50;;;;;;;;;;5004260;28;20699;-72
2022/12/08 10:45:53;;;;;;;543.47;210.40;;;;;;;;;;5000201;28;20297;-72
2022/12/08 10:48:25;;;;;;;445.57;184.40;;;;;;;;;;5018457;28;20569;-72
2022/12/08 10:50:56;;;;;;;528.80;215.53;;;;;;;;;;4992717;28;20224;-71
2022/12/08 10:53:27;;;;;;;490.30;186.00;;;;;;;;;;5003879;28;20245;-71
2022/12/08 10:56:05;;;;;;;437.57;167.57;;;;;;;;;;5031055;28;20232;-72
2022/12/08 10:58:32;;;;;;;388.70;145.67;;;;;;;;;;5008701;28;20227;-71
2022/12/08 11:01:17;;;;;;;517.63;190.87;;;;;;;;;;4997413;28;20305;-72
2022/12/08 11:03:43;;;;;;;458.90;168.03;;;;;;;;;;5006335;28;20294;-72
2022/12/08 11:06:12;;;;;;;494.03;186.97;;;;;;;;;;5002424;28;20215;-73
2022/12/08 11:08:46;;;;;;;489.50;186.50;;;;;;;;;;4997360;28;20223;-72
2022/12/08 11:11:13;;;;;;;446.57;162.03;;;;;;;;;;5018689;28;20245;-69
2022/12/08 11:13:40;;;;;;;394.27;167.13;;;;;;;;;;5024311;28;20636;-72
2022/12/08 11:16:07;;;;;;;407.93;169.70;;;;;;;;;;5006553;28;20415;-72
2022/12/08 11:18:59;;;;;;;502.70;191.73;;;;;;;;;;5014032;28;20228;-72
2022/12/08 11:21:34;;;;;;;437.30;154.73;;;;;;;;;;5027295;28;20215;-65
2022/12/08 11:24:09;;;;;;;378.70;157.97;;;;;;;;;;5025201;28;20210;-73
2022/12/08 11:26:36;;;;;;;544.20;198.17;;;;;;;;;;5018500;28;20765;-71
2022/12/08 11:29:03;;;;;;;489.70;194.30;;;;;;;;;;4982504;28;20215;-71
2022/12/08 11:31:34;;;;;;;466.40;199.10;;;;;;;;;;5011396;28;20188;-72
2022/12/08 11:34:00;;;;;;;349.43;146.03;;;;;;;;;;5003562;28;20277;-71
2022/12/08 11:36:28;;;;;;;491.87;209.07;;;;;;;;;;5021794;28;20215;-72
2022/12/08 11:38:56;;;;;;;509.03;202.60;;;;;;;;;;5013047;28;20226;-72
2022/12/08 11:41:26;;;;;;;356.77;148.13;;;;;;;;;;4990504;28;20219;-74
2022/12/08 11:44:06;;;;;;;462.70;173.93;;;;;;;;;;5024804;28;20668;-72
2022/12/08 11:46:52;;;;;;;424.37;160.50;;;;;;;;;;5015090;28;20297;-72
2022/12/08 11:49:19;;;;;;;446.03;171.60;;;;;;;;;;5000085;28;20290;-72
2022/12/08 11:52:02;;;;;;;522.73;194.03;;;;;;;;;;5011953;28;20211;-72
2022/12/08 11:54:31;;;;;;;400.57;154.87;;;;;;;;;;5005012;28;20307;-71
2022/12/08 11:56:58;;;;;;;354.30;149.80;;;;;;;;;;5000181;28;20215;-71
2022/12/08 11:59:33;;;;;;;553.83;219.10;;;;;;;;;;5014946;28;20390;-71
2022/12/08 12:02:00;;;;;;;547.67;208.37;;;;;;;;;;5013951;28;21250;-71
2022/12/08 12:04:50;;;;;;;524.13;194.27;;;;;;;;;;4987932;28;20232;-72
2022/12/08 12:07:28;;;;;;;369.67;143.53;;;;;;;;;;5004430;28;20246;-71
2022/12/08 12:09:57;;;;;;;351.07;146.47;;;;;;;;;;5005003;28;20728;-71
2022/12/08 12:12:34;;;;;;;344.07;146.77;;;;;;;;;;5027896;28;20207;-71
2022/12/08 12:15:15;;;;;;;527.73;195.07;;;;;;;;;;5000694;28;20222;-71
2022/12/08 12:17:52;;;;;;;473.17;184.87;;;;;;;;;;5001811;28;20361;-71
2022/12/08 12:20:27;;;;;;;433.97;165.30;;;;;;;;;;5029312;28;20548;-71
2022/12/08 12:22:58;;;;;;;467.53;177.40;;;;;;;;;;5028132;28;20187;-71
2022/12/08 12:25:25;;;;;;;348.67;142.80;;;;;;;;;;5020560;28;20251;-70
2022/12/08 12:27:55;;;;;;;365.30;139.47;;;;;;;;;;5034595;28;20293;-70
2022/12/08 12:30:23;;;;;;;378.03;144.80;;;;;;;;;;5019715;28;20685;-70
2022/12/08 12:33:12;;;;;;;445.23;168.30;;;;;;;;;;5008573;28;20219;-70
2022/12/08 12:35:42;;;;;;;436.47;168.60;;;;;;;;;;5012322;28;21335;-70
2022/12/08 12:41:01;;;;;;;298.70;120.13;;;;;;;;;;5034768;28;20334;-70
2022/12/08 12:43:29;;;;;;;462.10;170.50;;;;;;;;;;5020815;28;20184;-70
2022/12/08 12:46:14;;;;;;;390.77;156.37;;;;;;;;;;5038193;28;20321;-71
2022/12/08 12:48:40;;;;;;;443.00;169.90;;;;;;;;;;5015884;28;20219;-67
2022/12/08 12:51:26;;;;;;;333.93;134.33;;;;;;;;;;5016464;28;20227;-70
2022/12/08 12:53:52;;;;;;;444.20;163.17;;;;;;;;;;5014906;28;20238;-71
2022/12/08 12:56:36;;;;;;;318.60;123.53;;;;;;;;;;5043785;28;20227;-71
2022/12/08 12:59:20;;;;;;;435.23;155.77;;;;;;;;;;5038683;28;20207;-70
2022/12/08 13:01:54;;;;;;;346.83;148.57;;;;;;;;;;5036517;28;20567;-71
2022/12/08 13:04:28;;;;;;;464.33;178.57;;;;;;;;;;5018461;28;20203;-71
2022/12/08 13:06:53;;;;;;;407.50;171.50;;;;;;;;;;5010541;28;20782;-72
2022/12/08 13:09:26;;;;;;;319.33;136.97;;;;;;;;;;5030261;28;20302;-72
2022/12/08 13:11:54;;;;;;;369.83;147.83;;;;;;;;;;5029209;28;20213;-71
2022/12/08 13:14:45;;;;;;;520.50;195.67;;;;;;;;;;5008163;28;20344;-71
2022/12/08 13:17:12;;;;;;;443.87;170.40;;;;;;;;;;5012879;28;20902;-71
2022/12/08 13:19:39;;;;;;;440.90;168.37;;;;;;;;;;5027822;28;20246;-71
2022/12/08 13:22:25;;;;;;;363.20;146.77;;;;;;;;;;5038117;28;20222;-72
2022/12/08 13:24:51;;;;;;;397.70;160.57;;;;;;;;;;5014486;28;20277;-71
2022/12/08 13:27:31;;;;;;;367.67;163.03;;;;;;;;;;5030464;28;20216;-71
2022/12/08 13:30:17;;;;;;;469.90;170.53;;;;;;;;;;5026174;28;20553;-71
2022/12/08 13:32:56;;;;;;;463.20;171.50;;;;;;;;;;5013306;28;20219;-71
2022/12/08 13:35:23;;;;;;;367.13;146.77;;;;;;;;;;5027108;28;20260;-71
2022/12/08 13:37:49;;;;;;;463.03;175.87;;;;;;;;;;5007570;28;20621;-71
2022/12/08 13:40:15;;;;;;;434.97;149.93;;;;;;;;;;5027295;28;20265;-71
2022/12/08 13:42:47;;;;;;;386.23;154.20;;;;;;;;;;5027242;28;20214;-71
2022/12/08 13:45:13;;;;;;;337.03;131.77;;;;;;;;;;5040311;28;20280;-71
2022/12/08 13:47:58;;;;;;;450.40;167.57;;;;;;;;;;5028192;28;20306;-70
2022/12/08 13:50:27;;;;;;;507.60;185.97;;;;;;;;;;5026342;28;20234;-71
2022/12/08 13:53:04;;;;;;;434.70;166.43;;;;;;;;;;5006268;28;20283;-71
2022/12/08 13:55:42;;;;;;;420.40;156.03;;;;;;;;;;5016078;28;20206;-70
2022/12/08 13:58:18;;;;;;;476.70;173.67;;;;;;;;;;5034462;28;20747;-71
2022/12/08 14:00:53;;;;;;;442.33;151.03;;;;;;;;;;5009796;28;20216;-71
2022/12/08 14:03:19;;;;;;;533.23;188.87;;;;;;;;;;5028723;28;20277;-70
2022/12/08 14:05:45;;;;;;;383.60;143.00;;;;;;;;;;5019007;28;20220;-70
2022/12/08 14:08:26;;;;;;;401.83;148.67;;;;;;;;;;5018747;28;20664;-70